sensor_id;sensor_type;location;lat;lon;timestamp;pressure;altitude;pressure_sealevel;temperature;humidity
36454;BME280;22478;51.740;-1.314;2022-11-13T00:01:49;101065.73;;;9.64;100.00
36454;BME280;22478;51.740;-1.314;2022-11-13T00:04:15;101064.55;;;8.81;100.00
36454;BME280;22478;51.740;-1.314;2022-11-13T00:06:43;101055.38;;;10.30;100.00
36454;BME280;22478;51.740;-1.314;2022-11-13T00:09:11;101063.79;;;9.67;100.00
36454;BME280;22478;51.740;-1.314;2022-11-13T00:11:38;101071.18;;;8.56;100.00
36454;BME280;22478;51.740;-1.314;2022-11-13T00:14:05;101061.29;;;9.64;100.00
36454;BME280;22478;51.740;-1.314;2022-11-13T00:16:33;101057.64;;;9.46;100.00
36454;BME280;22478;51.740;-1.314;2022-11-13T00:19:00;101051.77;;;7.87;100.00
36454;BME280;22478;51.740;-1.314;2022-11-13T00:21:27;101043.18;;;8.11;100.00
36454;BME280;22478;51.740;-1.314;2022-11-13T00:23:55;101041.93;;;7.98;100.00
36454;BME280;22478;51.740;-1.314;2022-11-13T00:26:23;101045.21;;;8.03;100.00
36454;BME280;22478;51.740;-1.314;2022-11-13T00:28:52;101045.20;;;7.62;100.00
36454;BME280;22478;51.740;-1.314;2022-11-13T00:31:19;101042.00;;;8.30;100.00
36454;BME280;22478;51.740;-1.314;2022-11-13T00:33:47;101042.41;;;6.35;100.00
36454;BME280;22478;51.740;-1.314;2022-11-13T00:36:16;101037.78;;;8.61;100.00
36454;BME280;22478;51.740;-1.314;2022-11-13T00:38:44;101039.35;;;8.69;100.00
36454;BME280;22478;51.740;-1.314;2022-11-13T00:41:11;101030.06;;;10.32;100.00
36454;BME280;22478;51.740;-1.314;2022-11-13T00:43:38;101037.05;;;8.52;100.00
36454;BME280;22478;51.740;-1.314;2022-11-13T00:46:06;101034.63;;;8.59;100.00
36454;BME280;22478;51.740;-1.314;2022-11-13T00:48:35;101032.96;;;8.65;100.00
36454;BME280;22478;51.740;-1.314;2022-11-13T00:51:03;101034.03;;;8.15;100.00
36454;BME280;22478;51.740;-1.314;2022-11-13T00:53:30;101035.07;;;9.95;100.00
36454;BME280;22478;51.740;-1.314;2022-11-13T00:55:57;101026.35;;;10.19;100.00
36454;BME280;22478;51.740;-1.314;2022-11-13T00:58:25;101036.26;;;8.28;100.00
36454;BME280;22478;51.740;-1.314;2022-11-13T01:00:52;101025.37;;;9.68;100.00
36454;BME280;22478;51.740;-1.314;2022-11-13T01:03:19;101026.51;;;9.62;100.00
36454;BME280;22478;51.740;-1.314;2022-11-13T01:05:46;101022.26;;;9.70;100.00
36454;BME280;22478;51.740;-1.314;2022-11-13T01:08:14;101025.50;;;8.35;100.00
36454;BME280;22478;51.740;-1.314;2022-11-13T01:10:44;101018.93;;;9.79;100.00
36454;BME280;22478;51.740;-1.314;2022-11-13T01:13:11;101024.09;;;9.14;100.00
36454;BME280;22478;51.740;-1.314;2022-11-13T01:15:39;101027.43;;;8.13;100.00
36454;BME280;22478;51.740;-1.314;2022-11-13T01:18:07;101026.79;;;7.53;100.00
36454;BME280;22478;51.740;-1.314;2022-11-13T01:20:34;101032.27;;;5.91;100.00
36454;BME280;22478;51.740;-1.314;2022-11-13T01:23:02;101030.24;;;8.38;100.00
36454;BME280;22478;51.740;-1.314;2022-11-13T01:25:29;101034.27;;;7.10;100.00
36454;BME280;22478;51.740;-1.314;2022-11-13T01:27:56;101028.02;;;6.69;100.00
36454;BME280;22478;51.740;-1.314;2022-11-13T01:30:24;101028.31;;;6.63;100.00
36454;BME280;22478;51.740;-1.314;2022-11-13T01:32:52;101024.41;;;7.01;100.00
36454;BME280;22478;51.740;-1.314;2022-11-13T01:35:19;101027.91;;;6.72;100.00
36454;BME280;22478;51.740;-1.314;2022-11-13T01:37:46;101024.68;;;8.79;100.00
36454;BME280;22478;51.740;-1.314;2022-11-13T01:40:13;101025.81;;;7.50;100.00
36454;BME280;22478;51.740;-1.314;2022-11-13T01:42:41;101025.27;;;7.33;100.00
36454;BME280;22478;51.740;-1.314;2022-11-13T01:47:22;101016.85;;;7.96;100.00
36454;BME280;22478;51.740;-1.314;2022-11-13T01:49:52;101014.39;;;8.76;100.00
36454;BME280;22478;51.740;-1.314;2022-11-13T01:52:24;101019.43;;;6.69;100.00
36454;BME280;22478;51.740;-1.314;2022-11-13T01:54:54;101014.25;;;7.78;100.00
36454;BME280;22478;51.740;-1.314;2022-11-13T01:57:23;101009.80;;;8.52;100.00
36454;BME280;22478;51.740;-1.314;2022-11-13T01:59:55;101011.14;;;6.29;100.00
36454;BME280;22478;51.740;-1.314;2022-11-13T02:02:24;101006.48;;;6.97;100.00
36454;BME280;22478;51.740;-1.314;2022-11-13T02:04:51;101006.82;;;8.44;100.00
36454;BME280;22478;51.740;-1.314;2022-11-13T02:07:21;101003.03;;;9.08;100.00
36454;BME280;22478;51.740;-1.314;2022-11-13T02:09:50;100993.69;;;10.17;100.00
36454;BME280;22478;51.740;-1.314;2022-11-13T02:12:23;101001.13;;;8.41;100.00
36454;BME280;22478;51.740;-1.314;2022-11-13T02:14:53;100988.60;;;10.09;100.00
36454;BME280;22478;51.740;-1.314;2022-11-13T02:17:28;100988.05;;;10.94;100.00
36454;BME280;22478;51.740;-1.314;2022-11-13T02:19:59;100992.82;;;10.51;100.00
36454;BME280;22478;51.740;-1.314;2022-11-13T02:22:32;100992.90;;;10.65;100.00
36454;BME280;22478;51.740;-1.314;2022-11-13T02:25:03;100995.06;;;9.66;100.00
36454;BME280;22478;51.740;-1.314;2022-11-13T02:27:35;100996.95;;;9.33;100.00
36454;BME280;22478;51.740;-1.314;2022-11-13T02:30:14;100980.43;;;11.44;100.00
36454;BME280;22478;51.740;-1.314;2022-11-13T02:32:42;100979.52;;;11.18;100.00
36454;BME280;22478;51.740;-1.314;2022-11-13T02:35:10;100983.22;;;10.81;100.00
36454;BME280;22478;51.740;-1.314;2022-11-13T02:37:38;100986.47;;;10.86;100.00
36454;BME280;22478;51.740;-1.314;2022-11-13T02:40:06;100983.10;;;10.02;100.00
36454;BME280;22478;51.740;-1.314;2022-11-13T02:42:34;100981.42;;;10.43;100.00
36454;BME280;22478;51.740;-1.314;2022-11-13T02:45:02;100978.30;;;10.93;100.00
36454;BME280;22478;51.740;-1.314;2022-11-13T02:47:30;100970.01;;;11.79;100.00
36454;BME280;22478;51.740;-1.314;2022-11-13T02:49:57;100973.60;;;10.68;100.00
36454;BME280;22478;51.740;-1.314;2022-11-13T02:52:25;100966.57;;;11.52;100.00
36454;BME280;22478;51.740;-1.314;2022-11-13T02:54:52;100966.46;;;10.23;100.00
36454;BME280;22478;51.740;-1.314;2022-11-13T02:57:20;100963.41;;;10.59;100.00
36454;BME280;22478;51.740;-1.314;2022-11-13T02:59:47;100963.74;;;10.11;100.00
36454;BME280;22478;51.740;-1.314;2022-11-13T03:02:15;100960.97;;;10.77;100.00
36454;BME280;22478;51.740;-1.314;2022-11-13T03:04:42;100958.45;;;10.15;100.00
36454;BME280;22478;51.740;-1.314;2022-11-13T03:07:09;100958.53;;;9.51;100.00
36454;BME280;22478;51.740;-1.314;2022-11-13T03:09:36;100951.23;;;9.71;100.00
36454;BME280;22478;51.740;-1.314;2022-11-13T03:12:04;100956.04;;;9.45;100.00
36454;BME280;22478;51.740;-1.314;2022-11-13T03:14:31;100948.37;;;11.43;100.00
36454;BME280;22478;51.740;-1.314;2022-11-13T03:16:58;100952.04;;;10.83;100.00
36454;BME280;22478;51.740;-1.314;2022-11-13T03:19:25;100942.44;;;11.36;100.00
36454;BME280;22478;51.740;-1.314;2022-11-13T03:21:52;100942.79;;;10.19;100.00
36454;BME280;22478;51.740;-1.314;2022-11-13T03:24:20;100941.57;;;10.63;100.00
36454;BME280;22478;51.740;-1.314;2022-11-13T03:26:46;100941.16;;;10.25;100.00
36454;BME280;22478;51.740;-1.314;2022-11-13T03:29:14;100944.04;;;10.00;100.00
36454;BME280;22478;51.740;-1.314;2022-11-13T03:31:41;100945.71;;;9.18;100.00
36454;BME280;22478;51.740;-1.314;2022-11-13T03:34:08;100951.46;;;6.94;100.00
36454;BME280;22478;51.740;-1.314;2022-11-13T03:36:35;100952.24;;;8.21;100.00
36454;BME280;22478;51.740;-1.314;2022-11-13T03:39:02;100943.73;;;9.37;100.00
36454;BME280;22478;51.740;-1.314;2022-11-13T03:41:29;100938.41;;;9.34;100.00
36454;BME280;22478;51.740;-1.314;2022-11-13T03:43:56;100936.24;;;8.67;100.00
36454;BME280;22478;51.740;-1.314;2022-11-13T03:46:24;100939.15;;;8.31;100.00
36454;BME280;22478;51.740;-1.314;2022-11-13T03:48:51;100934.93;;;9.07;100.00
36454;BME280;22478;51.740;-1.314;2022-11-13T03:51:19;100920.20;;;9.92;100.00
36454;BME280;22478;51.740;-1.314;2022-11-13T03:53:46;100918.39;;;9.07;100.00
36454;BME280;22478;51.740;-1.314;2022-11-13T03:56:14;100918.33;;;8.21;100.00
36454;BME280;22478;51.740;-1.314;2022-11-13T03:58:41;100909.95;;;9.81;100.00
36454;BME280;22478;51.740;-1.314;2022-11-13T04:01:07;100909.01;;;9.43;100.00
36454;BME280;22478;51.740;-1.314;2022-11-13T04:03:34;100904.60;;;9.87;100.00
36454;BME280;22478;51.740;-1.314;2022-11-13T04:06:02;100918.26;;;7.27;100.00
36454;BME280;22478;51.740;-1.314;2022-11-13T04:08:29;100905.62;;;9.26;100.00
36454;BME280;22478;51.740;-1.314;2022-11-13T04:11:05;100905.87;;;8.82;100.00
36454;BME280;22478;51.740;-1.314;2022-11-13T04:13:32;100901.65;;;8.69;100.00
36454;BME280;22478;51.740;-1.314;2022-11-13T04:15:59;100908.45;;;7.75;100.00
36454;BME280;22478;51.740;-1.314;2022-11-13T04:18:26;100898.07;;;8.97;100.00
36454;BME280;22478;51.740;-1.314;2022-11-13T04:20:58;100899.26;;;8.43;100.00
36454;BME280;22478;51.740;-1.314;2022-11-13T04:23:25;100895.91;;;7.01;100.00
36454;BME280;22478;51.740;-1.314;2022-11-13T04:25:52;100900.05;;;7.06;100.00
36454;BME280;22478;51.740;-1.314;2022-11-13T04:28:20;100894.48;;;7.47;100.00
36454;BME280;22478;51.740;-1.314;2022-11-13T04:30:47;100889.45;;;7.51;100.00
36454;BME280;22478;51.740;-1.314;2022-11-13T04:33:15;100884.73;;;7.04;100.00
36454;BME280;22478;51.740;-1.314;2022-11-13T04:35:42;100886.74;;;6.93;100.00
36454;BME280;22478;51.740;-1.314;2022-11-13T04:38:09;100879.20;;;6.98;100.00
36454;BME280;22478;51.740;-1.314;2022-11-13T04:40:36;100878.16;;;6.95;100.00
36454;BME280;22478;51.740;-1.314;2022-11-13T04:43:03;100873.48;;;7.23;100.00
36454;BME280;22478;51.740;-1.314;2022-11-13T04:45:30;100876.92;;;4.99;100.00
36454;BME280;22478;51.740;-1.314;2022-11-13T04:47:57;100868.86;;;6.47;100.00
36454;BME280;22478;51.740;-1.314;2022-11-13T04:50:25;100870.81;;;6.33;100.00
36454;BME280;22478;51.740;-1.314;2022-11-13T04:52:52;100864.52;;;7.22;100.00
36454;BME280;22478;51.740;-1.314;2022-11-13T04:55:19;100865.22;;;7.56;100.00
36454;BME280;22478;51.740;-1.314;2022-11-13T04:57:46;100867.02;;;7.57;100.00
36454;BME280;22478;51.740;-1.314;2022-11-13T05:00:14;100862.55;;;7.38;100.00
36454;BME280;22478;51.740;-1.314;2022-11-13T05:02:42;100858.66;;;6.31;100.00
36454;BME280;22478;51.740;-1.314;2022-11-13T05:05:09;100853.14;;;7.02;100.00
36454;BME280;22478;51.740;-1.314;2022-11-13T05:07:36;100856.91;;;6.27;100.00
36454;BME280;22478;51.740;-1.314;2022-11-13T05:10:05;100852.64;;;6.34;100.00
36454;BME280;22478;51.740;-1.314;2022-11-13T05:12:32;100856.06;;;6.23;100.00
36454;BME280;22478;51.740;-1.314;2022-11-13T05:14:59;100849.76;;;7.07;100.00
36454;BME280;22478;51.740;-1.314;2022-11-13T05:17:26;100853.16;;;5.11;100.00
36454;BME280;22478;51.740;-1.314;2022-11-13T05:19:53;100853.06;;;5.44;100.00
36454;BME280;22478;51.740;-1.314;2022-11-13T05:22:20;100850.33;;;4.82;100.00
36454;BME280;22478;51.740;-1.314;2022-11-13T05:24:47;100844.64;;;6.06;100.00
36454;BME280;22478;51.740;-1.314;2022-11-13T05:27:15;100835.26;;;6.84;100.00
36454;BME280;22478;51.740;-1.314;2022-11-13T05:29:42;100828.89;;;5.93;100.00
36454;BME280;22478;51.740;-1.314;2022-11-13T05:32:09;100829.86;;;5.40;100.00
36454;BME280;22478;51.740;-1.314;2022-11-13T05:34:36;100824.53;;;6.42;100.00
36454;BME280;22478;51.740;-1.314;2022-11-13T05:37:03;100819.22;;;6.69;100.00
36454;BME280;22478;51.740;-1.314;2022-11-13T05:39:30;100819.06;;;6.28;100.00
36454;BME280;22478;51.740;-1.314;2022-11-13T05:41:58;100820.58;;;6.28;100.00
36454;BME280;22478;51.740;-1.314;2022-11-13T05:44:25;100812.02;;;5.74;100.00
36454;BME280;22478;51.740;-1.314;2022-11-13T05:46:52;100808.12;;;7.02;100.00
36454;BME280;22478;51.740;-1.314;2022-11-13T05:49:19;100807.60;;;5.19;100.00
36454;BME280;22478;51.740;-1.314;2022-11-13T05:51:46;100800.47;;;6.58;100.00
36454;BME280;22478;51.740;-1.314;2022-11-13T05:54:14;100800.63;;;6.41;100.00
36454;BME280;22478;51.740;-1.314;2022-11-13T05:56:41;100797.14;;;7.46;100.00
36454;BME280;22478;51.740;-1.314;2022-11-13T05:59:09;100803.32;;;5.42;100.00
36454;BME280;22478;51.740;-1.314;2022-11-13T06:01:38;100795.28;;;7.16;100.00
36454;BME280;22478;51.740;-1.314;2022-11-13T06:04:07;100789.42;;;8.39;100.00
36454;BME280;22478;51.740;-1.314;2022-11-13T06:06:34;100791.75;;;7.58;100.00
36454;BME280;22478;51.740;-1.314;2022-11-13T06:09:03;100794.82;;;7.01;100.00
36454;BME280;22478;51.740;-1.314;2022-11-13T06:11:30;100794.90;;;6.23;100.00
36454;BME280;22478;51.740;-1.314;2022-11-13T06:13:58;100791.19;;;8.04;100.00
36454;BME280;22478;51.740;-1.314;2022-11-13T06:16:28;100798.42;;;6.86;100.00
36454;BME280;22478;51.740;-1.314;2022-11-13T06:18:57;100799.85;;;6.70;100.00
36454;BME280;22478;51.740;-1.314;2022-11-13T06:21:28;100800.87;;;5.83;100.00
36454;BME280;22478;51.740;-1.314;2022-11-13T06:23:56;100805.13;;;6.50;100.00
36454;BME280;22478;51.740;-1.314;2022-11-13T06:26:26;100799.70;;;6.38;100.00
36454;BME280;22478;51.740;-1.314;2022-11-13T06:28:53;100803.30;;;5.98;100.00
36454;BME280;22478;51.740;-1.314;2022-11-13T06:31:23;100802.92;;;7.54;100.00
36454;BME280;22478;51.740;-1.314;2022-11-13T06:33:50;100799.99;;;7.33;100.00
36454;BME280;22478;51.740;-1.314;2022-11-13T06:36:20;100784.88;;;9.02;100.00
36454;BME280;22478;51.740;-1.314;2022-11-13T06:38:48;100791.25;;;7.71;100.00
36454;BME280;22478;51.740;-1.314;2022-11-13T06:41:17;100794.80;;;7.35;100.00
36454;BME280;22478;51.740;-1.314;2022-11-13T06:43:44;100791.34;;;7.86;100.00
36454;BME280;22478;51.740;-1.314;2022-11-13T06:46:14;100792.98;;;7.14;100.00
36454;BME280;22478;51.740;-1.314;2022-11-13T06:48:42;100794.37;;;8.01;100.00
36454;BME280;22478;51.740;-1.314;2022-11-13T06:51:16;100802.69;;;8.36;100.00
36454;BME280;22478;51.740;-1.314;2022-11-13T06:53:44;100806.64;;;7.59;100.00
36454;BME280;22478;51.740;-1.314;2022-11-13T06:56:12;100799.19;;;8.44;100.00
36454;BME280;22478;51.740;-1.314;2022-11-13T06:58:39;100802.10;;;6.48;100.00
36454;BME280;22478;51.740;-1.314;2022-11-13T07:01:09;100796.53;;;7.95;100.00
36454;BME280;22478;51.740;-1.314;2022-11-13T07:03:36;100796.74;;;7.78;100.00
36454;BME280;22478;51.740;-1.314;2022-11-13T07:06:06;100801.82;;;6.67;100.00
36454;BME280;22478;51.740;-1.314;2022-11-13T07:08:34;100806.93;;;6.88;100.00
36454;BME280;22478;51.740;-1.314;2022-11-13T07:11:01;100803.94;;;7.48;100.00
36454;BME280;22478;51.740;-1.314;2022-11-13T07:13:28;100807.28;;;6.92;100.00
36454;BME280;22478;51.740;-1.314;2022-11-13T07:16:00;100802.40;;;8.41;100.00
36454;BME280;22478;51.740;-1.314;2022-11-13T07:18:28;100798.59;;;6.69;100.00
36454;BME280;22478;51.740;-1.314;2022-11-13T07:20:55;100801.38;;;6.65;100.00
36454;BME280;22478;51.740;-1.314;2022-11-13T07:23:22;100801.46;;;8.63;100.00
36454;BME280;22478;51.740;-1.314;2022-11-13T07:25:52;100800.55;;;8.32;100.00
36454;BME280;22478;51.740;-1.314;2022-11-13T07:28:19;100795.44;;;8.36;100.00
36454;BME280;22478;51.740;-1.314;2022-11-13T07:30:46;100804.91;;;8.35;100.00
36454;BME280;22478;51.740;-1.314;2022-11-13T07:33:14;100806.36;;;7.95;100.00
36454;BME280;22478;51.740;-1.314;2022-11-13T07:35:41;100808.79;;;7.79;100.00
36454;BME280;22478;51.740;-1.314;2022-11-13T07:38:08;100813.58;;;6.98;100.00
36454;BME280;22478;51.740;-1.314;2022-11-13T07:40:36;100813.63;;;7.87;100.00
36454;BME280;22478;51.740;-1.314;2022-11-13T07:43:03;100819.79;;;6.49;100.00
36454;BME280;22478;51.740;-1.314;2022-11-13T07:45:30;100805.55;;;8.22;100.00
36454;BME280;22478;51.740;-1.314;2022-11-13T07:47:58;100810.85;;;9.19;100.00
36454;BME280;22478;51.740;-1.314;2022-11-13T07:50:26;100811.36;;;8.19;100.00
36454;BME280;22478;51.740;-1.314;2022-11-13T07:52:56;100816.87;;;7.72;100.00
36454;BME280;22478;51.740;-1.314;2022-11-13T07:55:24;100811.64;;;5.19;100.00
36454;BME280;22478;51.740;-1.314;2022-11-13T07:57:54;100809.61;;;6.77;100.00
36454;BME280;22478;51.740;-1.314;2022-11-13T08:00:22;100813.26;;;5.66;100.00
36454;BME280;22478;51.740;-1.314;2022-11-13T08:02:49;100811.39;;;6.34;100.00
36454;BME280;22478;51.740;-1.314;2022-11-13T08:05:17;100810.26;;;6.85;100.00
36454;BME280;22478;51.740;-1.314;2022-11-13T08:07:46;100812.19;;;6.49;100.00
36454;BME280;22478;51.740;-1.314;2022-11-13T08:10:13;100818.30;;;6.67;100.00
36454;BME280;22478;51.740;-1.314;2022-11-13T08:12:41;100822.71;;;5.33;100.00
36454;BME280;22478;51.740;-1.314;2022-11-13T08:15:09;100820.59;;;6.99;100.00
36454;BME280;22478;51.740;-1.314;2022-11-13T08:17:37;100828.98;;;5.00;100.00
36454;BME280;22478;51.740;-1.314;2022-11-13T08:20:06;100829.06;;;5.54;100.00
36454;BME280;22478;51.740;-1.314;2022-11-13T08:22:33;100826.99;;;5.99;100.00
36454;BME280;22478;51.740;-1.314;2022-11-13T08:25:01;100834.41;;;5.78;100.00
36454;BME280;22478;51.740;-1.314;2022-11-13T08:27:28;100834.11;;;5.97;100.00
36454;BME280;22478;51.740;-1.314;2022-11-13T08:29:55;100828.18;;;6.43;100.00
36454;BME280;22478;51.740;-1.314;2022-11-13T08:32:22;100825.56;;;6.42;100.00
36454;BME280;22478;51.740;-1.314;2022-11-13T08:34:50;100815.22;;;7.37;100.00
36454;BME280;22478;51.740;-1.314;2022-11-13T08:37:17;100811.37;;;7.21;100.00
36454;BME280;22478;51.740;-1.314;2022-11-13T08:39:44;100811.40;;;6.97;100.00
36454;BME280;22478;51.740;-1.314;2022-11-13T08:42:11;100811.31;;;6.55;100.00
36454;BME280;22478;51.740;-1.314;2022-11-13T08:44:38;100811.51;;;6.90;100.00
36454;BME280;22478;51.740;-1.314;2022-11-13T08:47:06;100813.74;;;6.99;100.00
36454;BME280;22478;51.740;-1.314;2022-11-13T08:49:33;100813.80;;;5.14;100.00
36454;BME280;22478;51.740;-1.314;2022-11-13T08:52:00;100813.26;;;5.60;100.00
36454;BME280;22478;51.740;-1.314;2022-11-13T08:54:27;100809.48;;;7.06;100.00
36454;BME280;22478;51.740;-1.314;2022-11-13T08:56:55;100813.84;;;5.45;100.00
36454;BME280;22478;51.740;-1.314;2022-11-13T08:59:22;100803.77;;;6.01;100.00
36454;BME280;22478;51.740;-1.314;2022-11-13T09:01:49;100797.62;;;6.05;100.00
36454;BME280;22478;51.740;-1.314;2022-11-13T09:04:16;100780.94;;;6.64;100.00
36454;BME280;22478;51.740;-1.314;2022-11-13T09:06:44;100778.70;;;5.41;100.00
36454;BME280;22478;51.740;-1.314;2022-11-13T09:09:11;100782.83;;;5.47;100.00
36454;BME280;22478;51.740;-1.314;2022-11-13T09:11:38;100786.64;;;5.88;100.00
36454;BME280;22478;51.740;-1.314;2022-11-13T09:14:05;100786.20;;;5.60;100.00
36454;BME280;22478;51.740;-1.314;2022-11-13T09:16:33;100789.43;;;5.55;100.00
36454;BME280;22478;51.740;-1.314;2022-11-13T09:19:00;100789.53;;;6.32;100.00
36454;BME280;22478;51.740;-1.314;2022-11-13T09:21:27;100785.09;;;6.38;100.00
36454;BME280;22478;51.740;-1.314;2022-11-13T09:23:55;100788.38;;;6.85;100.00
36454;BME280;22478;51.740;-1.314;2022-11-13T09:26:22;100784.31;;;7.10;100.00
36454;BME280;22478;51.740;-1.314;2022-11-13T09:28:49;100776.71;;;9.06;100.00
36454;BME280;22478;51.740;-1.314;2022-11-13T09:31:16;100775.87;;;8.89;100.00
36454;BME280;22478;51.740;-1.314;2022-11-13T09:33:44;100785.81;;;8.72;100.00
36454;BME280;22478;51.740;-1.314;2022-11-13T09:36:12;100781.11;;;8.37;100.00
36454;BME280;22478;51.740;-1.314;2022-11-13T09:38:40;100786.37;;;7.76;100.00
36454;BME280;22478;51.740;-1.314;2022-11-13T09:41:09;100789.50;;;6.30;100.00
36454;BME280;22478;51.740;-1.314;2022-11-13T09:43:41;100787.83;;;6.90;100.00
36454;BME280;22478;51.740;-1.314;2022-11-13T09:46:16;100777.02;;;6.00;100.00
36454;BME280;22478;51.740;-1.314;2022-11-13T09:48:49;100767.88;;;6.69;100.00
36454;BME280;22478;51.740;-1.314;2022-11-13T09:51:20;100762.68;;;6.21;100.00
36454;BME280;22478;51.740;-1.314;2022-11-13T09:53:50;100757.18;;;6.85;100.00
36454;BME280;22478;51.740;-1.314;2022-11-13T09:56:27;100753.61;;;6.11;100.00
36454;BME280;22478;51.740;-1.314;2022-11-13T09:59:00;100747.04;;;6.88;100.00
36454;BME280;22478;51.740;-1.314;2022-11-13T10:01:33;100743.27;;;6.38;100.00
36454;BME280;22478;51.740;-1.314;2022-11-13T10:04:07;100747.57;;;6.28;100.00
36454;BME280;22478;51.740;-1.314;2022-11-13T10:06:46;100742.40;;;6.02;100.00
36454;BME280;22478;51.740;-1.314;2022-11-13T10:09:23;100741.01;;;5.97;100.00
36454;BME280;22478;51.740;-1.314;2022-11-13T10:11:54;100742.09;;;6.30;100.00
36454;BME280;22478;51.740;-1.314;2022-11-13T10:14:27;100734.50;;;6.82;100.00
36454;BME280;22478;51.740;-1.314;2022-11-13T10:16:59;100732.68;;;7.71;100.00
36454;BME280;22478;51.740;-1.314;2022-11-13T10:19:35;100733.46;;;5.98;100.00
36454;BME280;22478;51.740;-1.314;2022-11-13T10:22:08;100743.55;;;6.31;100.00
36454;BME280;22478;51.740;-1.314;2022-11-13T10:24:40;100746.56;;;7.99;100.00
36454;BME280;22478;51.740;-1.314;2022-11-13T10:27:09;100747.62;;;6.90;100.00
36454;BME280;22478;51.740;-1.314;2022-11-13T10:29:36;100752.95;;;7.01;100.00
36454;BME280;22478;51.740;-1.314;2022-11-13T10:32:21;100741.54;;;8.23;100.00
36454;BME280;22478;51.740;-1.314;2022-11-13T10:34:52;100728.98;;;7.94;100.00
36454;BME280;22478;51.740;-1.314;2022-11-13T10:37:29;100722.74;;;7.66;100.00
36454;BME280;22478;51.740;-1.314;2022-11-13T10:39:58;100718.28;;;7.94;100.00
36454;BME280;22478;51.740;-1.314;2022-11-13T10:42:28;100710.75;;;8.60;100.00
36454;BME280;22478;51.740;-1.314;2022-11-13T10:44:59;100711.43;;;8.15;100.00
36454;BME280;22478;51.740;-1.314;2022-11-13T10:47:29;100714.84;;;7.78;100.00
36454;BME280;22478;51.740;-1.314;2022-11-13T10:50:08;100712.04;;;7.47;100.00
36454;BME280;22478;51.740;-1.314;2022-11-13T10:52:44;100717.58;;;7.59;100.00
36454;BME280;22478;51.740;-1.314;2022-11-13T10:55:16;100715.89;;;7.41;100.00
36454;BME280;22478;51.740;-1.314;2022-11-13T10:57:54;100709.88;;;7.86;100.00
36454;BME280;22478;51.740;-1.314;2022-11-13T11:00:25;100702.55;;;8.82;100.00
36454;BME280;22478;51.740;-1.314;2022-11-13T11:02:52;100697.52;;;10.41;100.00
36454;BME280;22478;51.740;-1.314;2022-11-13T11:05:21;100688.63;;;10.98;100.00
36454;BME280;22478;51.740;-1.314;2022-11-13T11:07:49;100683.10;;;11.31;100.00
36454;BME280;22478;51.740;-1.314;2022-11-13T11:10:26;100677.39;;;11.24;100.00
36454;BME280;22478;51.740;-1.314;2022-11-13T11:12:56;100672.28;;;10.27;100.00
36454;BME280;22478;51.740;-1.314;2022-11-13T11:15:27;100667.89;;;9.95;100.00
36454;BME280;22478;51.740;-1.314;2022-11-13T11:17:59;100658.10;;;12.28;100.00
36454;BME280;22478;51.740;-1.314;2022-11-13T11:20:38;100659.43;;;9.99;100.00
36454;BME280;22478;51.740;-1.314;2022-11-13T11:23:18;100639.11;;;14.47;100.00
36454;BME280;22478;51.740;-1.314;2022-11-13T11:25:51;100629.83;;;13.89;100.00
36454;BME280;22478;51.740;-1.314;2022-11-13T11:28:28;100617.10;;;14.59;100.00
36454;BME280;22478;51.740;-1.314;2022-11-13T11:31:03;100614.04;;;14.69;100.00
36454;BME280;22478;51.740;-1.314;2022-11-13T11:33:34;100610.03;;;13.22;100.00
36454;BME280;22478;51.740;-1.314;2022-11-13T11:36:12;100613.42;;;16.05;98.18
36454;BME280;22478;51.740;-1.314;2022-11-13T11:38:49;100603.59;;;17.67;89.37
36454;BME280;22478;51.740;-1.314;2022-11-13T11:41:24;100607.44;;;15.75;93.29
36454;BME280;22478;51.740;-1.314;2022-11-13T11:43:55;100606.36;;;17.18;86.66
36454;BME280;22478;51.740;-1.314;2022-11-13T11:46:26;100597.56;;;18.64;80.48
36454;BME280;22478;51.740;-1.314;2022-11-13T11:48:56;100601.78;;;14.10;94.08
36454;BME280;22478;51.740;-1.314;2022-11-13T11:51:29;100586.79;;;17.01;85.64
36454;BME280;22478;51.740;-1.314;2022-11-13T11:54:05;100579.08;;;16.58;87.69
36454;BME280;22478;51.740;-1.314;2022-11-13T11:56:38;100566.07;;;17.96;80.33
36454;BME280;22478;51.740;-1.314;2022-11-13T11:59:12;100563.86;;;14.87;93.23
36454;BME280;22478;51.740;-1.314;2022-11-13T12:01:57;100552.98;;;16.07;92.61
36454;BME280;22478;51.740;-1.314;2022-11-13T12:04:37;100546.96;;;16.22;87.73
36454;BME280;22478;51.740;-1.314;2022-11-13T12:07:21;100539.50;;;17.75;83.01
36454;BME280;22478;51.740;-1.314;2022-11-13T12:10:00;100536.99;;;17.18;86.08
36454;BME280;22478;51.740;-1.314;2022-11-13T12:12:40;100536.14;;;16.05;88.73
36454;BME280;22478;51.740;-1.314;2022-11-13T12:15:17;100536.32;;;16.21;91.80
36454;BME280;22478;51.740;-1.314;2022-11-13T12:17:54;100541.49;;;14.50;96.04
36454;BME280;22478;51.740;-1.314;2022-11-13T12:20:33;100532.78;;;15.97;88.86
36454;BME280;22478;51.740;-1.314;2022-11-13T12:23:11;100529.64;;;15.80;95.77
36454;BME280;22478;51.740;-1.314;2022-11-13T12:25:44;100533.57;;;14.18;100.00
36454;BME280;22478;51.740;-1.314;2022-11-13T12:28:18;100530.79;;;14.37;100.00
36454;BME280;22478;51.740;-1.314;2022-11-13T12:30:55;100531.17;;;13.56;100.00
36454;BME280;22478;51.740;-1.314;2022-11-13T12:33:36;100520.66;;;14.89;96.64
36454;BME280;22478;51.740;-1.314;2022-11-13T12:36:08;100521.98;;;14.48;100.00
36454;BME280;22478;51.740;-1.314;2022-11-13T12:38:41;100509.47;;;15.33;95.92
36454;BME280;22478;51.740;-1.314;2022-11-13T12:41:17;100509.27;;;12.95;100.00
36454;BME280;22478;51.740;-1.314;2022-11-13T12:44:04;100504.16;;;12.85;100.00
36454;BME280;22478;51.740;-1.314;2022-11-13T12:46:37;100504.53;;;12.58;100.00
36454;BME280;22478;51.740;-1.314;2022-11-13T12:49:15;100501.01;;;14.17;100.00
36454;BME280;22478;51.740;-1.314;2022-11-13T12:51:54;100500.00;;;13.45;100.00